createdAt,value
2022-08-18T00:00:29.445Z,51.08
2022-08-18T00:01:29.526Z,51.40
2022-08-18T00:02:29.906Z,42.06
2022-08-18T00:03:57.199Z,42.06
2022-08-18T00:04:35.323Z,42.06
2022-08-18T00:05:30.589Z,42.38
2022-08-18T00:06:29.927Z,42.38
2022-08-18T00:07:29.359Z,42.54
2022-08-18T00:08:29.350Z,42.38
2022-08-18T00:09:32.446Z,42.06
2022-08-18T00:10:29.455Z,42.38
2022-08-18T00:11:41.221Z,55.75
2022-08-18T00:12:30.312Z,42.54
2022-08-18T00:13:29.300Z,42.70
2022-08-18T00:14:29.293Z,54.30
2022-08-18T00:15:29.502Z,42.38
2022-08-18T00:16:29.269Z,42.38
2022-08-18T00:17:29.266Z,42.38
2022-08-18T00:18:29.499Z,42.54
2022-08-18T00:19:47.635Z,42.54
2022-08-18T00:20:30.342Z,42.54
2022-08-18T00:21:29.233Z,42.54
2022-08-18T00:22:29.268Z,42.38
2022-08-18T00:23:29.271Z,42.54
2022-08-18T00:24:29.396Z,42.54
2022-08-18T00:25:29.197Z,42.70
2022-08-18T00:26:32.349Z,42.54
2022-08-18T00:27:30.164Z,42.54
2022-08-18T00:28:29.182Z,42.86
2022-08-18T00:29:29.351Z,44.31
2022-08-18T00:30:29.161Z,54.14
2022-08-18T00:31:29.164Z,43.02
2022-08-18T00:32:29.188Z,42.54
2022-08-18T00:33:29.121Z,42.70
2022-08-18T00:34:29.096Z,53.82
2022-08-18T00:35:29.393Z,57.36
2022-08-18T00:36:29.110Z,55.91
2022-08-18T00:37:29.075Z,42.54
2022-08-18T00:38:29.058Z,42.70
2022-08-18T00:39:29.341Z,45.12
2022-08-18T00:40:32.364Z,55.91
2022-08-18T00:41:30.045Z,42.70
2022-08-18T00:42:31.142Z,42.54
2022-08-18T00:43:29.014Z,42.54
2022-08-18T00:44:28.994Z,42.38
2022-08-18T00:45:28.993Z,42.54
2022-08-18T00:46:28.991Z,42.70
2022-08-18T00:47:36.426Z,42.38
2022-08-18T00:48:29.969Z,42.70
2022-08-18T00:49:28.949Z,53.50
2022-08-18T00:50:29.158Z,42.70
2022-08-18T00:51:28.954Z,56.07
2022-08-18T00:52:28.916Z,55.43
2022-08-18T00:53:28.907Z,49.15
2022-08-18T00:54:28.903Z,42.54
2022-08-18T00:55:28.889Z,42.38
2022-08-18T00:56:28.893Z,58.81
2022-08-18T00:57:28.872Z,45.12
2022-08-18T00:58:28.865Z,48.34
2022-08-18T00:59:28.851Z,49.63
2022-08-18T01:00:28.947Z,42.38
2022-08-18T01:01:28.897Z,42.54
2022-08-18T01:02:28.814Z,42.06
2022-08-18T01:03:28.809Z,51.72
2022-08-18T01:04:28.800Z,42.38
2022-08-18T01:05:28.786Z,42.38
2022-08-18T01:06:29.049Z,56.24
2022-08-18T01:07:28.774Z,56.24
2022-08-18T01:08:29.383Z,56.24
2022-08-18T01:09:28.749Z,42.38
2022-08-18T01:10:28.884Z,42.38
2022-08-18T01:11:28.922Z,42.54
2022-08-18T01:12:45.376Z,42.70
2022-08-18T01:13:29.716Z,45.12
2022-08-18T01:14:28.698Z,54.14
2022-08-18T01:15:30.361Z,42.38
2022-08-18T01:16:28.689Z,42.38
2022-08-18T01:17:28.670Z,42.54
2022-08-18T01:18:28.649Z,45.28
2022-08-18T01:19:28.645Z,53.17
2022-08-18T01:20:28.639Z,42.70
2022-08-18T01:21:28.645Z,42.54
2022-08-18T01:22:28.619Z,42.70
2022-08-18T01:23:28.607Z,42.70
2022-08-18T01:24:28.801Z,43.67
2022-08-18T01:25:28.648Z,43.02
2022-08-18T01:26:28.599Z,42.38
2022-08-18T01:27:28.786Z,48.34
2022-08-18T01:28:28.556Z,42.38
2022-08-18T01:29:28.555Z,42.86
2022-08-18T01:30:28.529Z,43.02
2022-08-18T01:31:28.530Z,43.67
2022-08-18T01:32:28.566Z,55.91
2022-08-18T01:33:30.185Z,43.02
2022-08-18T01:34:28.717Z,42.54
2022-08-18T01:35:28.485Z,42.22
2022-08-18T01:36:29.487Z,44.15
2022-08-18T01:37:28.543Z,46.73
2022-08-18T01:38:28.458Z,42.22
2022-08-18T01:41:22.510Z,42.06
2022-08-18T01:41:25.074Z,42.38
2022-08-18T01:41:30.754Z,43.34
2022-08-18T01:42:28.428Z,43.34
2022-08-18T01:43:28.411Z,42.38
2022-08-18T01:44:28.395Z,42.22
2022-08-18T01:45:28.386Z,42.38
2022-08-18T01:46:28.406Z,42.06
2022-08-18T01:47:28.385Z,42.38
2022-08-18T01:48:28.360Z,42.38
2022-08-18T01:49:28.411Z,43.02
2022-08-18T01:50:28.338Z,42.54
2022-08-18T01:51:38.112Z,42.70
2022-08-18T01:52:29.326Z,43.02
2022-08-18T01:53:28.312Z,42.38
2022-08-18T01:54:28.296Z,43.18
2022-08-18T01:55:28.303Z,55.27
2022-08-18T01:56:28.303Z,43.51
2022-08-18T01:57:28.284Z,43.18
2022-08-18T01:58:31.640Z,43.02
2022-08-18T01:59:28.392Z,42.86
2022-08-18T02:00:28.262Z,43.18
2022-08-18T02:01:36.623Z,43.18
2022-08-18T02:02:29.250Z,43.34
2022-08-18T02:03:28.374Z,43.02
2022-08-18T02:04:36.896Z,42.70
2022-08-18T02:05:29.191Z,42.70
2022-08-18T02:06:32.120Z,42.86
2022-08-18T02:07:36.150Z,42.70
2022-08-18T02:08:29.160Z,43.34
2022-08-18T02:09:28.151Z,43.34
2022-08-18T02:10:28.137Z,43.34
2022-08-18T02:11:28.121Z,42.86
2022-08-18T02:12:28.132Z,43.02
2022-08-18T02:13:28.130Z,42.86
2022-08-18T02:14:28.096Z,42.54
2022-08-18T02:15:28.088Z,43.51
2022-08-18T02:16:28.081Z,56.40
2022-08-18T02:17:28.079Z,43.02
2022-08-18T02:18:47.608Z,43.18
2022-08-18T02:19:29.043Z,42.70
2022-08-18T02:20:28.044Z,43.34
2022-08-18T02:21:28.029Z,43.02
2022-08-18T02:22:28.215Z,42.86
2022-08-18T02:23:28.022Z,54.30
2022-08-18T02:24:28.261Z,43.51
2022-08-18T02:25:27.989Z,51.72
2022-08-18T02:26:28.079Z,52.21
2022-08-18T02:27:28.207Z,55.59
2022-08-18T02:28:30.688Z,48.02
2022-08-18T02:29:27.952Z,57.36
2022-08-18T02:30:27.938Z,43.51
2022-08-18T02:31:27.929Z,57.20
2022-08-18T02:32:29.422Z,51.88
2022-08-18T02:33:27.913Z,43.99
2022-08-18T02:34:27.908Z,45.28
2022-08-18T02:35:27.886Z,43.51
2022-08-18T02:36:27.883Z,54.46
2022-08-18T02:37:27.885Z,44.79
2022-08-18T02:38:27.883Z,43.99
2022-08-18T02:39:27.868Z,44.63
2022-08-18T02:40:27.845Z,58.17
2022-08-18T02:41:29.338Z,53.17
2022-08-18T02:42:27.841Z,59.14
2022-08-18T02:43:27.810Z,44.31
2022-08-18T02:44:27.811Z,51.72
2022-08-18T02:45:27.792Z,46.57
2022-08-18T02:46:29.280Z,46.57
2022-08-18T02:47:33.030Z,56.40
2022-08-18T02:48:28.771Z,50.11
2022-08-18T02:49:27.752Z,55.11
2022-08-18T02:50:27.744Z,60.26
2022-08-18T02:51:27.730Z,49.47
2022-08-18T02:52:27.741Z,46.41
2022-08-18T02:53:27.713Z,47.86
2022-08-18T02:54:27.704Z,54.62
2022-08-18T02:55:27.694Z,58.33
2022-08-18T02:56:40.525Z,49.95
2022-08-18T02:57:28.686Z,47.37
2022-08-18T02:58:33.166Z,46.57
2022-08-18T02:59:32.097Z,56.88
2022-08-18T03:00:28.648Z,50.27
2022-08-18T03:01:27.671Z,56.40
2022-08-18T03:02:27.634Z,59.46
2022-08-18T03:03:27.609Z,57.69
2022-08-18T03:04:29.486Z,46.89
2022-08-18T03:05:27.591Z,51.56
2022-08-18T03:06:27.583Z,45.60
2022-08-18T03:07:27.589Z,53.82
2022-08-18T03:08:27.561Z,50.43
2022-08-18T03:09:27.546Z,45.92
2022-08-18T03:10:32.868Z,58.81
2022-08-18T03:11:28.534Z,60.91
2022-08-18T03:12:27.537Z,59.62
2022-08-18T03:13:27.516Z,48.82
2022-08-18T03:14:27.625Z,54.46
2022-08-18T03:15:27.493Z,55.75
2022-08-18T03:16:27.495Z,51.08
2022-08-18T03:17:27.777Z,47.37
2022-08-18T03:18:27.465Z,59.46
2022-08-18T03:19:27.458Z,60.26
2022-08-18T03:20:30.529Z,57.20
2022-08-18T03:21:27.436Z,55.59
2022-08-18T03:22:29.550Z,53.82
2022-08-18T03:23:30.363Z,56.56
2022-08-18T03:24:27.405Z,42.86
2022-08-18T03:25:27.430Z,61.23
2022-08-18T03:26:27.387Z,62.20
2022-08-18T03:27:27.394Z,61.39
2022-08-18T03:28:27.366Z,54.79
2022-08-18T03:29:31.946Z,58.65
2022-08-18T03:30:27.342Z,59.62
2022-08-18T03:31:27.848Z,60.26
2022-08-18T03:32:27.328Z,58.17
2022-08-18T03:33:27.446Z,50.11
2022-08-18T03:34:27.318Z,60.42
2022-08-18T03:35:27.296Z,59.94
2022-08-18T03:36:27.288Z,45.92
2022-08-18T03:37:27.283Z,43.34
2022-08-18T03:38:27.286Z,59.14
2022-08-18T03:39:27.281Z,57.52
2022-08-18T03:40:27.243Z,59.46
2022-08-18T03:41:43.834Z,51.24
2022-08-18T03:42:28.253Z,61.23
2022-08-18T03:43:50.618Z,55.43
2022-08-18T03:44:28.216Z,58.33
2022-08-18T03:45:27.195Z,61.07
2022-08-18T03:46:27.195Z,58.97
2022-08-18T03:47:27.211Z,60.75
2022-08-18T03:48:27.186Z,59.78
2022-08-18T03:49:27.228Z,59.46
2022-08-18T03:50:27.153Z,59.14
2022-08-18T03:51:27.142Z,60.91
2022-08-18T03:52:27.136Z,57.52
2022-08-18T03:53:27.142Z,54.95
2022-08-18T03:54:27.215Z,59.46
2022-08-18T03:55:27.295Z,61.39
2022-08-18T03:56:27.091Z,60.91
2022-08-18T03:57:27.339Z,53.33
2022-08-18T03:58:27.085Z,60.26
2022-08-18T03:59:27.062Z,58.49
2022-08-18T04:00:27.058Z,58.97
2022-08-18T04:01:27.345Z,61.39
2022-08-18T04:02:27.030Z,59.46
2022-08-18T04:03:27.029Z,50.27
2022-08-18T04:04:27.007Z,55.59
2022-08-18T04:05:26.993Z,43.18
2022-08-18T04:06:30.223Z,57.85
2022-08-18T04:07:26.995Z,60.26
2022-08-18T04:08:26.974Z,59.14
2022-08-18T04:09:26.959Z,54.79
2022-08-18T04:10:26.944Z,59.46
2022-08-18T04:11:26.929Z,58.81
2022-08-18T04:12:26.946Z,56.88
2022-08-18T04:13:26.933Z,57.69
2022-08-18T04:14:26.911Z,58.01
2022-08-18T04:15:26.893Z,60.91
2022-08-18T04:16:26.896Z,58.81
2022-08-18T04:17:26.883Z,58.81
2022-08-18T04:18:26.887Z,57.36
2022-08-18T04:19:27.999Z,60.42
2022-08-18T04:20:26.854Z,53.98
2022-08-18T04:21:26.844Z,63.33
2022-08-18T04:22:26.831Z,60.10
2022-08-18T04:23:26.834Z,63.49
2022-08-18T04:24:28.124Z,62.36
2022-08-18T04:25:32.185Z,58.33
2022-08-18T04:26:27.793Z,52.37
2022-08-18T04:27:26.783Z,59.14
2022-08-18T04:28:26.938Z,58.33
2022-08-18T04:29:26.762Z,44.63
2022-08-18T04:30:26.758Z,58.97
2022-08-18T04:31:26.742Z,60.75
2022-08-18T04:32:29.983Z,59.78
2022-08-18T04:33:26.741Z,61.07
2022-08-18T04:34:26.716Z,55.75
2022-08-18T04:35:26.708Z,61.71
2022-08-18T04:36:26.696Z,58.97
2022-08-18T04:37:26.684Z,59.46
2022-08-18T04:38:26.909Z,59.94
2022-08-18T04:39:26.861Z,48.50
2022-08-18T04:40:26.770Z,58.33
2022-08-18T04:41:26.643Z,60.42
2022-08-18T04:42:26.647Z,60.91
2022-08-18T04:43:26.817Z,60.26
2022-08-18T04:44:26.617Z,60.42
2022-08-18T04:45:26.603Z,60.42
2022-08-18T04:46:26.604Z,56.40
2022-08-18T04:47:26.611Z,61.87
2022-08-18T04:48:26.589Z,60.75
2022-08-18T04:49:26.573Z,59.94
2022-08-18T04:50:26.753Z,60.91
2022-08-18T04:52:30.772Z,60.10
2022-08-18T04:52:39.716Z,54.14
2022-08-18T04:53:27.545Z,43.83
2022-08-18T04:54:26.631Z,58.81
2022-08-18T04:55:26.704Z,68.32
2022-08-18T04:56:26.494Z,56.40
2022-08-18T04:57:26.537Z,62.36
2022-08-18T04:58:26.498Z,58.33
2022-08-18T04:59:26.703Z,61.07
2022-08-18T05:00:26.466Z,59.94
2022-08-18T05:01:26.504Z,60.59
2022-08-18T05:02:26.494Z,59.46
2022-08-18T05:03:26.448Z,60.59
2022-08-18T05:04:26.421Z,65.74
2022-08-18T05:05:26.404Z,54.46
2022-08-18T05:06:26.405Z,62.52
2022-08-18T05:07:26.393Z,65.90
2022-08-18T05:08:26.396Z,60.26
2022-08-18T05:09:26.371Z,61.87
2022-08-18T05:10:26.362Z,58.49
2022-08-18T05:11:26.352Z,59.30
2022-08-18T05:12:26.867Z,61.71
2022-08-18T05:13:26.345Z,60.42
2022-08-18T05:14:26.333Z,61.07
2022-08-18T05:15:26.343Z,62.84
2022-08-18T05:16:27.541Z,68.64
2022-08-18T05:17:26.294Z,60.91
2022-08-18T05:18:26.739Z,61.87
2022-08-18T05:19:26.277Z,60.91
2022-08-18T05:20:26.321Z,59.46
2022-08-18T05:21:26.252Z,57.85
2022-08-18T05:22:28.854Z,62.04
2022-08-18T05:23:27.252Z,55.27
2022-08-18T05:24:29.619Z,59.14
2022-08-18T05:25:26.245Z,60.91
2022-08-18T05:26:26.210Z,65.26
2022-08-18T05:27:26.192Z,62.04
2022-08-18T05:28:26.204Z,62.20
2022-08-18T05:29:26.216Z,58.65
2022-08-18T05:30:26.164Z,63.16
2022-08-18T05:31:26.162Z,61.23
2022-08-18T05:32:37.104Z,61.39
2022-08-18T05:33:27.151Z,54.79
2022-08-18T05:34:26.133Z,56.07
2022-08-18T05:35:26.128Z,58.81
2022-08-18T05:36:26.113Z,58.81
2022-08-18T05:37:26.106Z,61.71
2022-08-18T05:38:26.278Z,58.17
2022-08-18T05:39:26.128Z,63.49
2022-08-18T05:40:26.139Z,60.42
2022-08-18T05:41:26.056Z,55.91
2022-08-18T05:42:26.056Z,56.88
2022-08-18T05:43:26.057Z,57.36
2022-08-18T05:44:26.029Z,61.39
2022-08-18T05:45:26.021Z,59.78
2022-08-18T05:46:26.005Z,55.43
2022-08-18T05:47:25.996Z,61.87
2022-08-18T05:48:26.026Z,61.55
2022-08-18T05:49:25.969Z,60.26
2022-08-18T05:50:25.971Z,61.87
2022-08-18T05:51:25.955Z,58.65
2022-08-18T05:52:25.949Z,61.55
2022-08-18T05:53:25.937Z,62.52
2022-08-18T05:54:26.052Z,60.59
2022-08-18T05:55:25.910Z,62.36
2022-08-18T05:56:25.910Z,73.32
2022-08-18T05:57:25.895Z,72.99
2022-08-18T05:58:33.532Z,70.90
2022-08-18T05:59:26.940Z,70.42
2022-08-18T06:00:25.875Z,75.57
2022-08-18T06:01:25.862Z,73.48
2022-08-18T06:02:25.861Z,69.45
2022-08-18T06:03:25.955Z,68.00
2022-08-18T06:04:25.856Z,70.42
2022-08-18T06:05:25.833Z,71.22
2022-08-18T06:06:25.811Z,71.38
2022-08-18T06:07:25.798Z,63.00
2022-08-18T06:08:26.801Z,70.09
2022-08-18T06:09:25.798Z,67.19
2022-08-18T06:10:25.770Z,71.22
2022-08-18T06:11:25.862Z,71.70
2022-08-18T06:12:25.785Z,71.38
2022-08-18T06:13:25.746Z,69.61
2022-08-18T06:14:25.759Z,73.48
2022-08-18T06:15:25.726Z,74.12
2022-08-18T06:16:25.717Z,68.16
2022-08-18T06:17:25.707Z,59.30
2022-08-18T06:18:25.701Z,57.20
2022-08-18T06:19:25.702Z,61.39
2022-08-18T06:20:25.683Z,60.42
2022-08-18T06:21:25.669Z,58.33
2022-08-18T06:22:25.671Z,60.59
2022-08-18T06:23:25.651Z,60.75
2022-08-18T06:24:25.656Z,59.94
2022-08-18T06:25:25.636Z,58.81
2022-08-18T06:26:25.623Z,61.87
2022-08-18T06:27:25.624Z,50.27
2022-08-18T06:28:25.606Z,61.07
2022-08-18T06:29:25.615Z,62.36
2022-08-18T06:30:25.587Z,56.07
2022-08-18T06:31:29.320Z,59.78
2022-08-18T06:32:25.565Z,60.75
2022-08-18T06:33:25.563Z,50.43
2022-08-18T06:34:25.611Z,53.82
2022-08-18T06:35:25.548Z,60.10
2022-08-18T06:36:25.529Z,59.94
2022-08-18T06:37:25.520Z,56.56
2022-08-18T06:38:25.519Z,60.26
2022-08-18T06:39:25.521Z,55.75
2022-08-18T06:40:25.489Z,60.42
2022-08-18T06:41:42.414Z,60.59
2022-08-18T06:42:26.476Z,56.07
2022-08-18T06:43:25.462Z,58.97
2022-08-18T06:44:25.458Z,61.07
2022-08-18T06:45:25.440Z,59.62
2022-08-18T06:46:26.433Z,57.85
2022-08-18T06:47:25.428Z,61.39
2022-08-18T06:48:25.412Z,53.50
2022-08-18T06:49:25.423Z,58.01
2022-08-18T06:50:25.393Z,59.78
2022-08-18T06:51:25.388Z,56.07
2022-08-18T06:52:25.405Z,60.59
2022-08-18T06:53:27.708Z,58.97
2022-08-18T06:54:25.353Z,56.56
2022-08-18T06:55:25.367Z,59.46
2022-08-18T06:56:26.252Z,59.46
2022-08-18T06:57:25.343Z,54.95
2022-08-18T06:58:25.371Z,57.20
2022-08-18T06:59:25.313Z,58.65
2022-08-18T07:00:25.348Z,54.62
2022-08-18T07:01:25.355Z,58.49
2022-08-18T07:02:25.306Z,57.04
2022-08-18T07:03:25.278Z,79.12
2022-08-18T07:04:25.262Z,52.69
2022-08-18T07:05:25.274Z,56.88
2022-08-18T07:06:25.249Z,56.24
2022-08-18T07:07:25.238Z,60.42
2022-08-18T07:08:25.228Z,58.17
2022-08-18T07:09:25.221Z,59.62
2022-08-18T07:10:25.317Z,55.59
2022-08-18T07:11:25.194Z,56.24
2022-08-18T07:12:30.455Z,57.36
2022-08-18T07:13:25.175Z,61.23
2022-08-18T07:14:25.161Z,61.39
2022-08-18T07:15:25.173Z,59.78
2022-08-18T07:16:46.984Z,61.71
2022-08-18T07:17:42.773Z,58.81
2022-08-18T07:18:26.353Z,61.23
2022-08-18T07:19:25.118Z,68.80
2022-08-18T07:20:25.222Z,61.23
2022-08-18T07:21:25.096Z,59.30
2022-08-18T07:22:29.951Z,56.72
2022-08-18T07:23:26.079Z,59.62
2022-08-18T07:24:25.699Z,58.65
2022-08-18T07:25:25.073Z,49.15
2022-08-18T07:26:25.044Z,59.14
2022-08-18T07:27:25.036Z,59.62
2022-08-18T07:28:25.032Z,60.75
2022-08-18T07:29:25.027Z,52.69
2022-08-18T07:30:25.024Z,53.82
2022-08-18T07:31:25.028Z,61.71
2022-08-18T07:32:24.995Z,58.01
2022-08-18T07:33:24.984Z,59.46
2022-08-18T07:34:24.968Z,59.14
2022-08-18T07:35:24.977Z,62.36
2022-08-18T07:36:24.952Z,47.21
2022-08-18T07:37:28.537Z,59.94
2022-08-18T07:38:41.868Z,52.53
2022-08-18T07:39:25.926Z,59.14
2022-08-18T07:40:24.933Z,57.04
2022-08-18T07:41:24.906Z,59.94
2022-08-18T07:42:53.865Z,59.30
2022-08-18T07:43:25.890Z,56.56
2022-08-18T07:44:24.872Z,58.49
2022-08-18T07:45:25.072Z,49.63
2022-08-18T07:46:24.853Z,59.30
2022-08-18T07:47:25.094Z,52.37
2022-08-18T07:48:38.264Z,59.46
2022-08-18T07:49:25.831Z,58.01
2022-08-18T07:50:57.381Z,55.75
2022-08-18T07:51:27.048Z,59.46
2022-08-18T07:52:43.872Z,58.17
2022-08-18T07:53:25.784Z,60.10
2022-08-18T07:54:48.411Z,50.43
2022-08-18T07:55:25.835Z,58.01
2022-08-18T07:56:24.753Z,56.24
2022-08-18T07:57:24.747Z,61.23
2022-08-18T07:58:24.740Z,64.61
2022-08-18T07:59:24.724Z,66.87
2022-08-18T08:00:54.931Z,65.74
2022-08-18T08:01:25.996Z,63.33
2022-08-18T08:02:24.702Z,67.03
2022-08-18T08:03:24.692Z,67.51
2022-08-18T08:04:25.711Z,66.06
2022-08-18T08:05:24.687Z,63.97
2022-08-18T08:06:24.654Z,60.75
2022-08-18T08:07:25.584Z,48.02
2022-08-18T08:08:25.501Z,64.78
2022-08-18T08:09:24.629Z,64.78
2022-08-18T08:10:24.629Z,59.94
2022-08-18T08:11:24.607Z,58.97
2022-08-18T08:12:24.594Z,57.85
2022-08-18T08:13:44.105Z,55.43
2022-08-18T08:14:26.668Z,55.43
2022-08-18T08:15:26.630Z,58.17
2022-08-18T08:16:24.562Z,59.30
2022-08-18T08:17:24.545Z,55.59
2022-08-18T08:18:24.537Z,57.85
2022-08-18T08:19:42.633Z,60.75
2022-08-18T08:20:25.537Z,59.62
2022-08-18T08:21:25.518Z,57.85
2022-08-18T08:22:24.552Z,58.65
2022-08-18T08:23:24.497Z,53.82
2022-08-18T08:24:24.480Z,58.97
2022-08-18T08:25:45.169Z,56.56
2022-08-18T08:26:25.478Z,59.46
2022-08-18T08:27:24.457Z,58.81
2022-08-18T08:28:24.439Z,59.46
2022-08-18T08:29:24.433Z,57.04
2022-08-18T08:30:24.419Z,59.14
2022-08-18T08:31:39.488Z,59.46
2022-08-18T08:32:25.426Z,56.56
2022-08-18T08:33:24.392Z,59.94
2022-08-18T08:34:24.380Z,53.33
2022-08-18T08:35:48.753Z,59.78
2022-08-18T08:36:25.366Z,59.78
2022-08-18T08:37:24.360Z,57.69
2022-08-18T08:38:39.921Z,60.10
2022-08-18T08:39:25.333Z,58.01
2022-08-18T08:40:24.375Z,58.81
2022-08-18T08:41:24.324Z,60.42
2022-08-18T08:42:29.652Z,58.81
2022-08-18T08:43:25.295Z,55.43
2022-08-18T08:44:25.028Z,56.07
2022-08-18T08:45:26.391Z,59.94
2022-08-18T08:46:24.280Z,58.97
2022-08-18T08:47:24.255Z,60.91
2022-08-18T08:48:24.248Z,54.46
2022-08-18T08:49:24.298Z,57.04
2022-08-18T08:50:24.452Z,52.69
2022-08-18T08:51:24.237Z,51.40
2022-08-18T08:52:25.205Z,51.24
2022-08-18T08:53:24.189Z,55.75
2022-08-18T08:54:24.199Z,57.69
2022-08-18T08:55:24.210Z,59.14
2022-08-18T08:56:24.178Z,59.78
2022-08-18T08:57:24.188Z,55.75
2022-08-18T08:58:24.925Z,63.81
2022-08-18T08:59:24.140Z,59.62
2022-08-18T09:00:24.154Z,59.62
2022-08-18T09:01:24.223Z,59.30
2022-08-18T09:02:46.874Z,57.52
2022-08-18T09:03:30.009Z,56.24
2022-08-18T09:04:25.077Z,59.62
2022-08-18T09:05:24.076Z,57.52
2022-08-18T09:06:24.075Z,55.27
2022-08-18T09:07:24.052Z,56.56
2022-08-18T09:08:24.045Z,58.49
2022-08-18T09:09:24.030Z,57.85
2022-08-18T09:10:24.024Z,56.56
2022-08-18T09:11:24.026Z,53.82
2022-08-18T09:12:24.001Z,58.17
2022-08-18T09:13:28.827Z,53.33
2022-08-18T09:14:25.002Z,51.88
2022-08-18T09:15:23.973Z,49.15
2022-08-18T09:16:23.996Z,53.66
2022-08-18T09:17:23.951Z,55.91
2022-08-18T09:18:23.947Z,55.43
2022-08-18T09:19:23.939Z,54.79
2022-08-18T09:20:23.917Z,55.59
2022-08-18T09:21:23.931Z,57.52
2022-08-18T09:22:23.901Z,57.04
2022-08-18T09:23:23.903Z,56.88
2022-08-18T09:24:23.879Z,55.11
2022-08-18T09:25:23.877Z,58.81
2022-08-18T09:26:23.877Z,61.87
2022-08-18T09:27:23.858Z,66.87
2022-08-18T09:28:23.842Z,61.23
2022-08-18T09:29:23.840Z,58.97
2022-08-18T09:30:23.828Z,62.20
2022-08-18T09:31:23.896Z,55.91
2022-08-18T09:32:24.167Z,58.65
2022-08-18T09:33:23.848Z,53.50
2022-08-18T09:34:24.398Z,56.56
2022-08-18T09:35:23.774Z,53.50
2022-08-18T09:36:26.031Z,58.01
2022-08-18T09:37:24.449Z,56.72
2022-08-18T09:38:23.740Z,56.40
2022-08-18T09:39:23.743Z,56.72
2022-08-18T09:40:44.396Z,57.20
2022-08-18T09:41:24.727Z,58.97
2022-08-18T09:42:23.701Z,56.72
2022-08-18T09:43:24.692Z,55.59
2022-08-18T09:44:26.770Z,57.69
2022-08-18T09:45:23.676Z,59.94
2022-08-18T09:46:23.675Z,59.46
2022-08-18T09:47:23.749Z,58.17
2022-08-18T09:49:24.630Z,56.72
2022-08-18T09:50:27.261Z,57.20
2022-08-18T09:51:23.621Z,57.36
2022-08-18T09:52:24.485Z,59.30
2022-08-18T09:53:23.589Z,56.56
2022-08-18T09:54:25.160Z,59.46
2022-08-18T09:55:23.565Z,53.82
2022-08-18T09:56:28.746Z,58.33
2022-08-18T09:57:24.586Z,55.91
2022-08-18T09:58:25.805Z,56.88
2022-08-18T09:59:23.525Z,60.26
2022-08-18T10:00:24.320Z,59.62
2022-08-18T10:01:23.655Z,59.46
2022-08-18T10:02:28.066Z,58.49
2022-08-18T10:04:28.180Z,59.46
2022-08-18T10:05:23.468Z,65.26
2022-08-18T10:06:26.928Z,56.40
2022-08-18T10:07:23.456Z,55.75
2022-08-18T10:09:36.069Z,58.01
2022-08-18T10:11:00.599Z,57.20
2022-08-18T10:11:24.442Z,53.50
2022-08-18T10:12:23.402Z,58.97
2022-08-18T10:13:24.959Z,55.91
2022-08-18T10:14:23.389Z,56.88
2022-08-18T10:15:33.373Z,56.88
2022-08-18T10:16:24.372Z,58.97
2022-08-18T10:17:24.684Z,58.97
2022-08-18T10:18:23.350Z,56.40
2022-08-18T10:19:33.692Z,58.01
2022-08-18T10:20:26.523Z,59.62
2022-08-18T10:21:24.589Z,61.23
2022-08-18T10:22:35.290Z,57.52
2022-08-18T10:23:24.322Z,55.11
2022-08-18T10:24:35.904Z,56.07
2022-08-18T10:25:24.300Z,55.75
2022-08-18T10:26:23.265Z,57.69
2022-08-18T10:27:23.279Z,51.08
2022-08-18T10:28:23.250Z,66.87
2022-08-18T10:29:23.242Z,68.00
2022-08-18T10:30:23.235Z,61.71
2022-08-18T10:31:24.168Z,57.85
2022-08-18T10:32:23.233Z,57.04
2022-08-18T10:33:23.206Z,60.59
2022-08-18T10:34:23.250Z,59.62
2022-08-18T10:35:28.709Z,63.81
2022-08-18T10:36:24.175Z,55.43
2022-08-18T10:37:26.114Z,54.62
2022-08-18T10:38:23.161Z,55.27
2022-08-18T10:39:23.200Z,58.01
2022-08-18T10:40:23.143Z,55.91
2022-08-18T10:41:23.126Z,57.36
2022-08-18T10:42:23.140Z,57.04
2022-08-18T10:43:45.412Z,54.79
2022-08-18T10:44:29.480Z,54.95
2022-08-18T10:45:24.913Z,54.79
2022-08-18T10:46:24.934Z,57.20
2022-08-18T10:47:24.843Z,57.85
2022-08-18T10:48:24.273Z,59.62
2022-08-18T10:49:23.055Z,57.04
2022-08-18T10:50:23.089Z,58.01
2022-08-18T10:51:23.040Z,57.04
2022-08-18T10:52:23.044Z,56.56
2022-08-18T10:53:39.196Z,56.24
2022-08-18T10:54:24.256Z,56.56
2022-08-18T10:55:23.005Z,59.62
2022-08-18T10:56:26.722Z,58.49
2022-08-18T10:57:22.983Z,56.40
2022-08-18T10:58:23.947Z,53.66
2022-08-18T10:59:28.237Z,55.91
2022-08-18T11:00:23.948Z,56.40
2022-08-18T11:01:22.937Z,57.52
2022-08-18T11:02:22.941Z,55.59
2022-08-18T11:03:51.087Z,53.98
2022-08-18T11:04:33.878Z,57.52
2022-08-18T11:05:23.924Z,57.69
2022-08-18T11:06:22.894Z,56.56
2022-08-18T11:07:22.900Z,55.91
2022-08-18T11:08:22.901Z,66.87
2022-08-18T11:09:22.858Z,57.20
2022-08-18T11:10:30.907Z,58.33
2022-08-18T11:11:34.764Z,56.40
2022-08-18T11:12:23.847Z,60.10
2022-08-18T11:13:22.819Z,58.97
2022-08-18T11:14:22.839Z,53.66
2022-08-18T11:15:24.030Z,61.07
2022-08-18T11:16:22.797Z,55.27
2022-08-18T11:17:22.789Z,69.13
2022-08-18T11:18:22.793Z,56.72
2022-08-18T11:19:22.803Z,54.14
2022-08-18T11:20:22.755Z,54.95
2022-08-18T11:21:22.743Z,59.78
2022-08-18T11:22:31.165Z,51.72
2022-08-18T11:23:23.728Z,57.04
2022-08-18T11:24:22.729Z,56.07
2022-08-18T11:25:22.708Z,57.36
2022-08-18T11:26:22.697Z,58.81
2022-08-18T11:27:22.733Z,48.18
2022-08-18T11:28:22.683Z,61.07
2022-08-18T11:29:23.698Z,51.72
2022-08-18T11:30:30.589Z,54.14
2022-08-18T11:31:23.827Z,53.66
2022-08-18T11:32:22.651Z,58.17
2022-08-18T11:33:24.340Z,57.85
2022-08-18T11:34:22.634Z,56.24
2022-08-18T11:35:22.615Z,52.69
2022-08-18T11:36:22.606Z,58.81
2022-08-18T11:37:22.662Z,55.75
2022-08-18T11:38:23.588Z,54.46
2022-08-18T11:39:35.952Z,58.49
2022-08-18T11:41:23.563Z,55.43
2022-08-18T11:42:25.029Z,51.72
2022-08-18T11:43:23.821Z,53.82
2022-08-18T11:44:22.529Z,58.17
2022-08-18T11:45:23.357Z,55.43
2022-08-18T11:46:28.064Z,56.07
2022-08-18T11:47:28.019Z,55.75
2022-08-18T11:48:28.072Z,59.30
2022-08-18T11:50:23.466Z,57.52
2022-08-18T11:52:28.996Z,53.17
2022-08-18T11:53:23.981Z,56.40
2022-08-18T11:54:23.462Z,52.69
2022-08-18T11:55:24.561Z,53.82
2022-08-18T11:57:23.414Z,58.81
2022-08-18T11:58:22.399Z,56.56
2022-08-18T11:59:22.384Z,57.20
2022-08-18T12:00:23.930Z,58.65
2022-08-18T12:01:22.362Z,52.53
2022-08-18T12:02:22.362Z,56.24
2022-08-18T12:03:22.365Z,56.88
2022-08-18T12:04:22.336Z,53.01
2022-08-18T12:05:22.328Z,47.21
2022-08-18T12:06:26.777Z,58.97
2022-08-18T12:07:23.306Z,56.88
2022-08-18T12:08:50.667Z,58.17
2022-08-18T12:09:54.225Z,57.52
2022-08-18T12:10:26.065Z,57.69
2022-08-18T12:12:23.260Z,53.82
2022-08-18T12:13:22.246Z,59.14
2022-08-18T12:14:30.152Z,56.88
2022-08-18T12:16:23.234Z,61.55
2022-08-18T12:17:22.221Z,60.42
2022-08-18T12:18:28.269Z,60.10
2022-08-18T12:19:24.192Z,55.59
2022-08-18T12:20:22.606Z,55.75
2022-08-18T12:21:22.188Z,61.07
2022-08-18T12:22:22.162Z,59.62
2022-08-18T12:23:22.147Z,58.65
2022-08-18T12:24:26.044Z,56.56
2022-08-18T12:25:24.849Z,59.14
2022-08-18T12:26:38.523Z,58.01
2022-08-18T12:27:23.170Z,56.56
2022-08-18T12:28:22.666Z,58.17
2022-08-18T12:29:22.096Z,56.40
2022-08-18T12:30:22.087Z,59.30
2022-08-18T12:31:22.095Z,59.14
2022-08-18T12:32:46.619Z,57.85
2022-08-18T12:34:24.869Z,55.91
2022-08-18T12:35:22.563Z,57.04
2022-08-18T12:36:22.104Z,55.11
2022-08-18T12:38:23.015Z,55.75
2022-08-18T12:39:21.998Z,56.40
2022-08-18T12:40:22.088Z,56.24
2022-08-18T12:41:23.890Z,56.72
2022-08-18T12:42:21.967Z,57.20
2022-08-18T12:43:21.969Z,57.85
2022-08-18T12:44:21.954Z,56.07
2022-08-18T12:45:21.939Z,56.07
2022-08-18T12:46:22.037Z,55.27
2022-08-18T12:47:21.916Z,56.40
2022-08-18T12:48:22.335Z,57.36
2022-08-18T12:49:21.902Z,56.07
2022-08-18T12:50:31.702Z,59.94
2022-08-18T12:51:24.772Z,58.17
2022-08-18T12:52:21.880Z,56.72
2022-08-18T12:53:30.068Z,56.07
2022-08-18T12:54:22.866Z,54.79
2022-08-18T12:55:22.460Z,52.05
2022-08-18T12:56:21.844Z,59.14
2022-08-18T12:57:33.384Z,56.56
2022-08-18T12:58:22.820Z,55.91
2022-08-18T12:59:21.806Z,54.46
2022-08-18T13:00:29.327Z,57.52
2022-08-18T13:01:23.489Z,57.69
2022-08-18T13:02:21.803Z,54.14
2022-08-18T13:03:21.773Z,58.81